Terminal Aerodrome Forecast
Issued by NWS

Home | Current Version | Previous Version | Text Only | Print | Product List | Glossary On
Versions: 1 2 3 4 5 6 7 8 9 10 11 12 13 14 15 16 17 18
859
FTAK31 PAJN 031141
TAFAKT
TAF
PAKT 031141Z 0312/0412 15008KT P6SM VCSH SCT020 BKN035 OVC050
      WS020/23025KT
      TEMPO 0312/0316 VRB05KT 6SM -SHRA BR SCT015 BKN025 OVC035
     FM040000 VRB05KT P6SM VCSH SCT015 BKN035
      AMD LTD TO CLD VIS AND WIND 0312/0315=

USA.gov is the U.S. government's official web portal to all federal, state and local government web resources and services.